createdAt,value
2023-04-14T00:00:39.051Z,1008.65
2023-04-14T00:02:39.236Z,1008.65
2023-04-14T00:04:39.426Z,1008.59
2023-04-14T00:06:38.989Z,1008.59
2023-04-14T00:08:39.092Z,1008.68
2023-04-14T00:10:39.193Z,1008.65
2023-04-14T00:12:39.201Z,1008.65
2023-04-14T00:14:39.012Z,1008.62
2023-04-14T00:16:47.428Z,1008.66
2023-04-14T00:18:39.021Z,1008.69
2023-04-14T00:20:39.087Z,1008.69
2023-04-14T00:22:39.054Z,1008.69
2023-04-14T00:24:39.229Z,1008.69
2023-04-14T00:26:39.124Z,1008.79
2023-04-14T00:28:41.929Z,1008.78
2023-04-14T00:32:39.146Z,1008.78
2023-04-14T00:34:39.040Z,1008.81
2023-04-14T00:38:39.093Z,1008.89
2023-04-14T00:40:39.077Z,1008.89
2023-04-14T00:42:08.959Z,1008.89
2023-04-14T00:44:14.018Z,1008.89
2023-04-14T00:46:11.575Z,1008.90
2023-04-14T00:48:08.922Z,1008.93
2023-04-14T00:50:08.912Z,1008.92
2023-04-14T00:52:11.831Z,1008.90
2023-04-14T00:54:11.869Z,1008.90
2023-04-14T00:56:08.942Z,1008.93
2023-04-14T00:58:08.924Z,1008.95
2023-04-14T01:00:09.209Z,1008.97
2023-04-14T01:02:12.030Z,1008.98
2023-04-14T01:04:09.150Z,1008.98
2023-04-14T01:06:09.039Z,1008.98
2023-04-14T01:08:08.985Z,1009.00
2023-04-14T01:10:09.121Z,1009.00
2023-04-14T01:12:08.941Z,1009.02
2023-04-14T01:16:16.761Z,1008.99
2023-04-14T01:18:11.699Z,1009.00
2023-04-14T01:21:10.169Z,1009.00
2023-04-14T01:23:09.037Z,1009.01
2023-04-14T01:25:08.957Z,1009.03
2023-04-14T01:27:08.947Z,1009.03
2023-04-14T01:29:11.807Z,1009.08
2023-04-14T01:30:15.319Z,1009.08
2023-04-14T01:33:09.221Z,1009.08
2023-04-14T01:35:08.965Z,1009.06
2023-04-14T01:37:09.030Z,1009.06
2023-04-14T01:39:09.009Z,1009.11
2023-04-14T01:41:16.617Z,1009.09
2023-04-14T01:43:12.535Z,1009.10
2023-04-14T01:45:09.009Z,1009.10
2023-04-14T01:47:09.010Z,1009.10
2023-04-14T01:49:09.067Z,1009.16
2023-04-14T01:51:11.963Z,1009.11
2023-04-14T01:53:09.043Z,1009.11
2023-04-14T01:55:09.288Z,1009.11
2023-04-14T01:57:08.969Z,1009.11
2023-04-14T01:59:09.025Z,1009.10
2023-04-14T02:01:09.019Z,1009.07
2023-04-14T02:03:09.131Z,1009.05
2023-04-14T02:05:09.034Z,1009.05
2023-04-14T02:07:08.976Z,1009.05
2023-04-14T02:09:12.012Z,1009.01
2023-04-14T02:11:08.940Z,1009.04
2023-04-14T02:13:09.011Z,1009.04
2023-04-14T02:15:08.962Z,1009.04
2023-04-14T02:17:09.080Z,1009.02
2023-04-14T02:19:09.046Z,1009.02
2023-04-14T02:21:09.010Z,1009.03
2023-04-14T02:23:08.966Z,1009.03
2023-04-14T02:25:11.778Z,1009.00
2023-04-14T02:27:08.995Z,1009.00
2023-04-14T02:29:09.578Z,1008.98
2023-04-14T02:31:09.066Z,1008.97
2023-04-14T02:33:09.435Z,1008.97
2023-04-14T02:35:09.118Z,1008.92
2023-04-14T02:37:09.097Z,1008.93
2023-04-14T02:39:09.011Z,1008.95
2023-04-14T02:41:09.066Z,1008.94
2023-04-14T02:43:09.076Z,1008.94
2023-04-14T02:45:13.992Z,1008.98
2023-04-14T02:47:09.011Z,1009.00
2023-04-14T02:49:10.520Z,1009.00
2023-04-14T02:51:08.997Z,1009.00
2023-04-14T02:53:09.044Z,1009.04
2023-04-14T02:55:09.019Z,1009.05
2023-04-14T02:57:09.246Z,1009.05
2023-04-14T02:59:09.117Z,1009.06
2023-04-14T03:01:09.125Z,1009.06
2023-04-14T03:03:09.383Z,1009.02
2023-04-14T03:05:09.185Z,1009.02
2023-04-14T03:07:09.047Z,1009.02
2023-04-14T03:09:09.060Z,1008.99
2023-04-14T03:11:11.774Z,1008.99
2023-04-14T03:13:09.112Z,1008.99
2023-04-14T03:15:12.088Z,1008.96
2023-04-14T03:17:09.015Z,1008.92
2023-04-14T03:19:13.083Z,1008.92
2023-04-14T03:21:11.969Z,1008.88
2023-04-14T03:23:15.145Z,1008.80
2023-04-14T03:25:11.556Z,1008.73
2023-04-14T03:27:09.071Z,1008.71
2023-04-14T03:29:09.288Z,1008.71
2023-04-14T03:31:09.158Z,1008.70
2023-04-14T03:33:09.024Z,1008.70
2023-04-14T03:35:11.733Z,1008.72
2023-04-14T03:37:11.560Z,1008.73
2023-04-14T03:39:09.718Z,1008.73
2023-04-14T03:41:09.056Z,1008.75
2023-04-14T03:43:09.185Z,1008.74
2023-04-14T03:45:09.074Z,1008.71
2023-04-14T03:47:09.170Z,1008.71
2023-04-14T03:49:09.150Z,1008.71
2023-04-14T03:51:09.152Z,1008.73
2023-04-14T03:53:09.126Z,1008.78
2023-04-14T03:55:12.038Z,1008.77
2023-04-14T03:57:09.231Z,1008.77
2023-04-14T03:59:10.163Z,1008.75
2023-04-14T04:01:11.663Z,1008.73
2023-04-14T04:03:12.076Z,1008.74
2023-04-14T04:05:09.184Z,1008.72
2023-04-14T04:07:08.993Z,1008.72
2023-04-14T04:09:09.077Z,1008.72
2023-04-14T04:11:09.012Z,1008.74
2023-04-14T04:13:09.006Z,1008.77
2023-04-14T04:15:09.061Z,1008.76
2023-04-14T04:17:09.153Z,1008.76
2023-04-14T04:19:13.936Z,1008.74
2023-04-14T04:21:09.198Z,1008.74
2023-04-14T04:23:09.107Z,1008.70
2023-04-14T04:25:09.086Z,1008.70
2023-04-14T04:27:17.104Z,1008.76
2023-04-14T04:29:12.482Z,1008.76
2023-04-14T04:31:09.276Z,1008.81
2023-04-14T04:33:14.032Z,1008.87
2023-04-14T04:35:09.056Z,1008.87
2023-04-14T04:37:09.073Z,1008.91
2023-04-14T04:39:09.036Z,1008.93
2023-04-14T04:41:09.077Z,1008.97
2023-04-14T04:43:09.252Z,1008.97
2023-04-14T04:45:09.111Z,1008.97
2023-04-14T04:48:09.147Z,1008.97
2023-04-14T04:50:09.192Z,1009.01
2023-04-14T04:52:11.690Z,1008.99
2023-04-14T04:54:09.224Z,1009.02
2023-04-14T04:56:09.047Z,1008.98
2023-04-14T04:58:09.270Z,1008.98
2023-04-14T05:00:11.945Z,1008.97
2023-04-14T05:02:13.578Z,1008.97
2023-04-14T05:04:09.290Z,1009.00
2023-04-14T05:06:11.600Z,1009.06
2023-04-14T05:08:09.040Z,1009.06
2023-04-14T05:10:09.249Z,1009.06
2023-04-14T05:12:09.080Z,1009.11
2023-04-14T05:14:12.041Z,1009.24
2023-04-14T05:16:12.202Z,1009.29
2023-04-14T05:18:09.132Z,1009.29
2023-04-14T05:20:09.144Z,1009.37
2023-04-14T05:22:09.319Z,1009.44
2023-04-14T05:24:09.100Z,1009.49
2023-04-14T05:26:31.235Z,1009.49
2023-04-14T05:28:09.269Z,1009.51
2023-04-14T05:30:09.111Z,1009.55
2023-04-14T05:32:10.640Z,1009.61
2023-04-14T05:34:09.229Z,1009.59
2023-04-14T05:36:09.021Z,1009.59
2023-04-14T05:38:09.139Z,1009.63
2023-04-14T05:40:12.891Z,1009.70
2023-04-14T05:42:09.135Z,1009.79
2023-04-14T05:44:09.123Z,1009.80
2023-04-14T05:46:09.175Z,1009.80
2023-04-14T05:48:09.105Z,1009.86
2023-04-14T05:50:09.092Z,1009.86
2023-04-14T05:52:09.237Z,1009.85
2023-04-14T05:54:13.940Z,1009.85
2023-04-14T05:56:09.127Z,1009.87
2023-04-14T05:58:09.050Z,1009.90
2023-04-14T06:00:09.230Z,1009.93
2023-04-14T06:02:09.269Z,1009.92
2023-04-14T06:04:15.394Z,1009.92
2023-04-14T06:06:09.578Z,1009.94
2023-04-14T06:08:09.094Z,1009.97
2023-04-14T06:10:09.102Z,1009.95
2023-04-14T06:12:12.168Z,1009.96
2023-04-14T06:14:09.143Z,1009.96
2023-04-14T06:16:09.173Z,1009.93
2023-04-14T06:18:12.639Z,1009.91
2023-04-14T06:20:09.294Z,1009.86
2023-04-14T06:22:09.360Z,1009.86
2023-04-14T06:24:09.077Z,1009.80
2023-04-14T06:26:13.114Z,1009.78
2023-04-14T06:28:09.141Z,1009.73
2023-04-14T06:30:09.230Z,1009.73
2023-04-14T06:32:09.369Z,1009.73
2023-04-14T06:34:09.617Z,1009.65
2023-04-14T06:36:09.110Z,1009.61
2023-04-14T06:38:09.137Z,1009.59
2023-04-14T06:40:10.857Z,1009.53
2023-04-14T06:42:09.156Z,1009.53
2023-04-14T06:44:09.232Z,1009.48
2023-04-14T06:46:09.190Z,1009.46
2023-04-14T06:48:09.224Z,1009.42
2023-04-14T06:50:09.278Z,1009.42
2023-04-14T06:52:09.106Z,1009.41
2023-04-14T06:54:09.136Z,1009.37
2023-04-14T06:56:09.217Z,1009.38
2023-04-14T06:58:09.230Z,1009.41
2023-04-14T07:00:09.427Z,1009.41
2023-04-14T07:02:09.612Z,1009.43
2023-04-14T07:04:09.503Z,1009.38
2023-04-14T07:06:26.387Z,1009.38
2023-04-14T07:08:36.894Z,1009.38
2023-04-14T07:10:36.957Z,1009.38
2023-04-14T07:12:37.467Z,1009.34
2023-04-14T07:14:36.945Z,1009.34
2023-04-14T07:16:41.759Z,1009.35
2023-04-14T07:18:36.890Z,1009.41
2023-04-14T07:20:36.850Z,1009.44
2023-04-14T07:22:38.383Z,1009.44
2023-04-14T07:24:36.866Z,1009.43
2023-04-14T07:26:36.844Z,1009.41
2023-04-14T07:28:36.921Z,1009.44
2023-04-14T07:30:37.050Z,1009.39
2023-04-14T07:32:37.148Z,1009.39
2023-04-14T07:34:36.915Z,1009.41
2023-04-14T07:36:36.941Z,1009.39
2023-04-14T07:38:36.883Z,1009.44
2023-04-14T07:40:38.904Z,1009.48
2023-04-14T07:42:37.225Z,1009.48
2023-04-14T07:44:37.038Z,1009.46
2023-04-14T07:46:36.967Z,1009.44
2023-04-14T07:48:36.882Z,1009.43
2023-04-14T07:50:36.869Z,1009.43
2023-04-14T07:52:36.874Z,1009.43
2023-04-14T07:54:36.886Z,1009.40
2023-04-14T07:56:36.944Z,1009.43
2023-04-14T07:58:36.986Z,1009.40
2023-04-14T08:00:36.944Z,1009.40
2023-04-14T08:02:38.487Z,1009.43
2023-04-14T08:04:37.024Z,1009.47
2023-04-14T08:06:36.884Z,1009.53
2023-04-14T08:08:36.896Z,1009.53
2023-04-14T08:10:36.923Z,1009.53
2023-04-14T08:12:37.085Z,1009.53
2023-04-14T08:14:36.853Z,1009.49
2023-04-14T08:16:37.279Z,1009.47
2023-04-14T08:18:37.034Z,1009.46
2023-04-14T08:20:39.706Z,1009.46
2023-04-14T08:22:36.972Z,1009.46
2023-04-14T08:24:37.901Z,1009.46
2023-04-14T08:26:36.959Z,1009.42
2023-04-14T08:28:40.776Z,1009.42
2023-04-14T08:30:37.033Z,1009.40
2023-04-14T08:32:37.003Z,1009.40
2023-04-14T08:34:36.927Z,1009.36
2023-04-14T08:36:37.085Z,1009.34
2023-04-14T08:38:37.060Z,1009.34
2023-04-14T08:40:36.968Z,1009.34
2023-04-14T08:42:36.957Z,1009.32
2023-04-14T08:44:36.918Z,1009.38
2023-04-14T08:46:36.956Z,1009.35
2023-04-14T08:48:36.979Z,1009.35
2023-04-14T08:50:36.987Z,1009.33
2023-04-14T08:52:37.051Z,1009.29
2023-04-14T08:54:36.947Z,1009.30
2023-04-14T08:56:36.964Z,1009.30
2023-04-14T08:58:37.661Z,1009.31
2023-04-14T09:00:36.961Z,1009.29
2023-04-14T09:02:37.045Z,1009.29
2023-04-14T09:04:37.163Z,1009.31
2023-04-14T09:06:36.921Z,1009.31
2023-04-14T09:08:37.018Z,1009.35
2023-04-14T09:10:36.943Z,1009.39
2023-04-14T09:12:37.851Z,1009.39
2023-04-14T09:14:36.987Z,1009.39
2023-04-14T09:16:37.048Z,1009.39
2023-04-14T09:18:36.945Z,1009.38
2023-04-14T09:20:40.350Z,1009.33
2023-04-14T09:22:36.947Z,1009.37
2023-04-14T09:24:37.106Z,1009.37
2023-04-14T09:26:37.069Z,1009.39
2023-04-14T09:28:37.034Z,1009.39
2023-04-14T09:30:37.142Z,1009.40
2023-04-14T09:32:37.087Z,1009.41
2023-04-14T09:34:37.145Z,1009.41
2023-04-14T09:36:37.009Z,1009.43
2023-04-14T09:38:37.281Z,1009.39
2023-04-14T09:40:37.008Z,1009.40
2023-04-14T09:42:37.055Z,1009.37
2023-04-14T09:44:37.032Z,1009.37
2023-04-14T09:46:37.056Z,1009.40
2023-04-14T09:48:37.116Z,1009.38
2023-04-14T09:50:37.104Z,1009.37
2023-04-14T09:52:37.024Z,1009.37
2023-04-14T09:54:37.331Z,1009.37
2023-04-14T09:56:40.996Z,1009.34
2023-04-14T09:58:37.086Z,1009.35
2023-04-14T10:00:37.019Z,1009.32
2023-04-14T10:02:37.068Z,1009.32
2023-04-14T10:04:37.203Z,1009.28
2023-04-14T10:06:37.013Z,1009.25
2023-04-14T10:09:37.124Z,1009.16
2023-04-14T10:11:40.950Z,1009.06
2023-04-14T10:13:37.183Z,1008.99
2023-04-14T10:15:37.071Z,1008.94
2023-04-14T10:17:37.101Z,1008.94
2023-04-14T10:19:37.025Z,1008.87
2023-04-14T10:21:37.080Z,1008.84
2023-04-14T10:23:37.134Z,1008.85
2023-04-14T10:25:37.253Z,1008.85
2023-04-14T10:27:41.935Z,1008.84
2023-04-14T10:29:36.990Z,1008.82
2023-04-14T10:31:37.095Z,1008.82
2023-04-14T10:33:37.051Z,1008.82
2023-04-14T10:35:39.298Z,1008.82
2023-04-14T10:37:37.103Z,1008.73
2023-04-14T10:39:37.103Z,1008.66
2023-04-14T10:41:37.108Z,1008.60
2023-04-14T10:43:37.074Z,1008.62
2023-04-14T10:45:37.040Z,1008.62
2023-04-14T10:47:37.064Z,1008.67
2023-04-14T10:49:37.241Z,1008.76
2023-04-14T10:51:37.779Z,1008.83
2023-04-14T10:53:37.040Z,1008.83
2023-04-14T10:55:40.155Z,1008.82
2023-04-14T10:57:41.948Z,1008.75
2023-04-14T10:59:37.090Z,1008.64
2023-04-14T11:01:37.173Z,1008.64
2023-04-14T11:03:37.249Z,1008.64
2023-04-14T11:05:37.108Z,1008.67
2023-04-14T11:07:37.143Z,1008.68
2023-04-14T11:09:37.322Z,1008.72
2023-04-14T11:11:37.206Z,1008.66
2023-04-14T11:13:37.140Z,1008.66
2023-04-14T11:15:37.123Z,1008.66
2023-04-14T11:17:37.401Z,1008.64
2023-04-14T11:19:37.019Z,1008.62
2023-04-14T11:21:37.021Z,1008.65
2023-04-14T11:23:37.160Z,1008.65
2023-04-14T11:25:37.052Z,1008.60
2023-04-14T11:27:37.069Z,1008.62
2023-04-14T11:29:37.320Z,1008.63
2023-04-14T11:31:37.071Z,1008.63
2023-04-14T11:33:37.775Z,1008.68
2023-04-14T11:35:37.109Z,1008.66
2023-04-14T11:37:37.058Z,1008.69
2023-04-14T11:39:37.138Z,1008.72
2023-04-14T11:41:37.070Z,1008.72
2023-04-14T11:43:37.060Z,1008.72
2023-04-14T11:45:38.911Z,1008.58
2023-04-14T11:47:37.244Z,1008.46
2023-04-14T11:49:37.022Z,1008.47
2023-04-14T11:51:37.715Z,1008.47
2023-04-14T11:53:37.396Z,1008.40
2023-04-14T11:55:37.374Z,1008.40
2023-04-14T11:57:37.354Z,1008.41
2023-04-14T11:59:37.302Z,1008.41
2023-04-14T12:01:37.877Z,1008.36
2023-04-14T12:03:37.348Z,1008.36
2023-04-14T12:05:41.003Z,1008.28
2023-04-14T12:07:43.034Z,1008.25
2023-04-14T12:09:37.216Z,1008.25
2023-04-14T12:11:37.034Z,1008.23
2023-04-14T12:13:37.098Z,1008.21
2023-04-14T12:15:37.225Z,1008.21
2023-04-14T12:17:37.256Z,1008.16
2023-04-14T12:19:37.069Z,1008.16
2023-04-14T12:21:41.982Z,1008.20
2023-04-14T12:23:37.188Z,1008.14
2023-04-14T12:25:37.174Z,1008.02
2023-04-14T12:27:37.389Z,1008.02
2023-04-14T12:29:37.121Z,1007.97
2023-04-14T12:31:37.164Z,1008.01
2023-04-14T12:33:37.294Z,1007.98
2023-04-14T12:35:37.101Z,1007.98
2023-04-14T12:37:37.064Z,1007.98
2023-04-14T12:39:37.161Z,1007.90
2023-04-14T12:41:37.126Z,1007.89
2023-04-14T12:43:37.084Z,1007.81
2023-04-14T12:45:40.482Z,1007.80
2023-04-14T12:47:37.310Z,1007.80
2023-04-14T12:49:42.738Z,1007.80
2023-04-14T12:51:37.064Z,1007.76
2023-04-14T12:53:42.929Z,1007.69
2023-04-14T12:55:37.251Z,1007.69
2023-04-14T12:57:37.269Z,1007.67
2023-04-14T12:59:38.824Z,1007.61
2023-04-14T13:01:37.305Z,1007.54
2023-04-14T13:03:37.356Z,1007.50
2023-04-14T13:05:37.099Z,1007.50
2023-04-14T13:07:37.117Z,1007.41
2023-04-14T13:09:37.177Z,1007.34
2023-04-14T13:11:37.131Z,1007.26
2023-04-14T13:13:37.178Z,1007.22
2023-04-14T13:16:13.519Z,1007.22
2023-04-14T13:19:41.003Z,1007.19
2023-04-14T13:21:37.118Z,1007.21
2023-04-14T13:23:37.164Z,1007.21
2023-04-14T13:25:57.812Z,1007.17
2023-04-14T13:27:57.778Z,1007.15
2023-04-14T13:29:57.882Z,1007.14
2023-04-14T13:31:57.779Z,1007.11
2023-04-14T13:33:57.819Z,1007.11
2023-04-14T13:35:59.926Z,1007.05
2023-04-14T13:37:58.206Z,1006.99
2023-04-14T13:39:57.871Z,1007.00
2023-04-14T13:41:57.989Z,1006.98
2023-04-14T13:43:57.798Z,1006.98
2023-04-14T13:45:57.891Z,1007.01
2023-04-14T13:47:57.804Z,1006.99
2023-04-14T13:49:58.020Z,1007.14
2023-04-14T13:51:57.943Z,1007.18
2023-04-14T13:53:57.767Z,1007.18
2023-04-14T13:55:57.845Z,1007.13
2023-04-14T13:57:57.778Z,1007.13
2023-04-14T13:59:57.834Z,1007.13
2023-04-14T14:01:58.209Z,1007.13
2023-04-14T14:03:59.107Z,1007.15
2023-04-14T14:06:01.244Z,1007.19
2023-04-14T14:07:57.815Z,1007.20
2023-04-14T14:09:57.843Z,1007.17
2023-04-14T14:11:58.179Z,1007.17
2023-04-14T14:13:57.781Z,1007.14
2023-04-14T14:15:57.803Z,1007.17
2023-04-14T14:17:57.801Z,1007.16
2023-04-14T14:19:58.286Z,1007.13
2023-04-14T14:21:57.808Z,1007.13
2023-04-14T14:23:57.871Z,1007.10
2023-04-14T14:25:57.963Z,1007.04
2023-04-14T14:27:58.820Z,1007.05
2023-04-14T14:29:57.839Z,1007.05
2023-04-14T14:31:57.858Z,1007.03
2023-04-14T14:33:58.015Z,1007.05
2023-04-14T14:35:58.009Z,1007.07
2023-04-14T14:37:59.015Z,1007.07
2023-04-14T14:39:57.821Z,1007.07
2023-04-14T14:41:58.021Z,1007.05
2023-04-14T14:43:58.571Z,1007.02
2023-04-14T14:45:57.890Z,1006.99
2023-04-14T14:47:58.007Z,1007.01
2023-04-14T14:50:01.000Z,1007.01
2023-04-14T14:51:57.794Z,1006.98
2023-04-14T14:54:09.160Z,1006.96
2023-04-14T14:56:02.700Z,1006.94
2023-04-14T14:57:57.956Z,1006.94
2023-04-14T14:59:57.766Z,1006.92
2023-04-14T15:01:57.839Z,1006.92
2023-04-14T15:04:01.269Z,1006.93
2023-04-14T15:05:57.794Z,1006.91
2023-04-14T15:08:57.818Z,1006.92
2023-04-14T15:10:58.873Z,1006.94
2023-04-14T15:12:57.844Z,1006.94
2023-04-14T15:15:01.010Z,1006.91
2023-04-14T15:16:57.879Z,1006.90
2023-04-14T15:18:02.741Z,1006.90
2023-04-14T15:20:58.065Z,1006.86
2023-04-14T15:22:57.809Z,1006.86
2023-04-14T15:24:57.830Z,1006.78
2023-04-14T15:26:57.820Z,1006.77
2023-04-14T15:28:57.999Z,1006.80
2023-04-14T15:30:57.878Z,1006.80
2023-04-14T15:33:00.596Z,1006.79
2023-04-14T15:34:58.214Z,1006.82
2023-04-14T15:36:58.521Z,1006.77
2023-04-14T15:38:57.913Z,1006.78
2023-04-14T15:40:57.875Z,1006.78
2023-04-14T15:42:58.110Z,1006.77
2023-04-14T15:44:57.887Z,1006.74
2023-04-14T15:47:00.749Z,1006.75
2023-04-14T15:48:57.948Z,1006.74
2023-04-14T15:50:57.984Z,1006.74
2023-04-14T15:52:58.109Z,1006.79
2023-04-14T15:54:57.925Z,1006.84
2023-04-14T15:57:00.678Z,1006.86
2023-04-14T15:58:58.194Z,1006.86
2023-04-14T16:00:57.914Z,1006.86
2023-04-14T16:02:58.231Z,1006.88
2023-04-14T16:04:58.122Z,1006.90
2023-04-14T16:06:58.149Z,1006.91
2023-04-14T16:08:57.899Z,1006.91
2023-04-14T16:10:58.071Z,1006.90
2023-04-14T16:12:57.863Z,1006.93
2023-04-14T16:14:58.111Z,1006.95
2023-04-14T16:16:58.092Z,1006.93
2023-04-14T16:18:58.097Z,1006.93
2023-04-14T16:20:58.056Z,1006.91
2023-04-14T16:22:58.055Z,1006.96
2023-04-14T16:24:57.910Z,1006.94
2023-04-14T16:26:59.360Z,1006.94
2023-04-14T16:29:01.095Z,1006.96
2023-04-14T16:30:57.948Z,1006.95
2023-04-14T16:32:58.174Z,1006.98
2023-04-14T16:34:57.900Z,1006.97
2023-04-14T16:36:57.988Z,1006.97
2023-04-14T16:38:57.920Z,1006.98
2023-04-14T16:40:58.087Z,1006.98
2023-04-14T16:42:58.001Z,1007.01
2023-04-14T16:44:57.897Z,1006.99
2023-04-14T16:46:58.509Z,1006.99
2023-04-14T16:48:58.363Z,1006.99
2023-04-14T16:50:58.464Z,1007.01
2023-04-14T16:52:58.297Z,1007.01
2023-04-14T16:54:59.405Z,1007.00
2023-04-14T16:56:58.632Z,1007.00
2023-04-14T16:59:05.754Z,1006.94
2023-04-14T17:00:58.414Z,1006.97
2023-04-14T17:02:58.400Z,1006.97
2023-04-14T17:04:58.984Z,1006.97
2023-04-14T17:06:58.421Z,1006.94
2023-04-14T17:08:58.332Z,1006.95
2023-04-14T17:10:58.343Z,1006.94
2023-04-14T17:12:58.313Z,1006.99
2023-04-14T17:14:58.273Z,1006.99
2023-04-14T17:16:58.516Z,1006.97
2023-04-14T17:18:58.324Z,1006.97
2023-04-14T17:20:58.571Z,1006.97
2023-04-14T17:23:03.397Z,1007.08
2023-04-14T17:24:58.285Z,1007.08
2023-04-14T17:26:59.499Z,1007.06
2023-04-14T17:29:00.748Z,1007.09
2023-04-14T17:30:58.073Z,1007.08
2023-04-14T17:33:02.849Z,1007.08
2023-04-14T17:34:57.946Z,1007.09
2023-04-14T17:37:00.641Z,1007.09
2023-04-14T17:38:57.993Z,1007.11
2023-04-14T17:40:58.098Z,1007.13
2023-04-14T17:42:58.093Z,1007.13
2023-04-14T17:44:58.127Z,1007.12
2023-04-14T17:46:57.950Z,1007.13
2023-04-14T17:48:58.456Z,1007.16
2023-04-14T17:50:59.077Z,1007.14
2023-04-14T17:52:58.339Z,1007.14
2023-04-14T17:54:58.285Z,1007.22
2023-04-14T17:56:58.272Z,1007.23
2023-04-14T17:59:03.319Z,1007.25
2023-04-14T18:00:57.950Z,1007.25
2023-04-14T18:02:58.633Z,1007.25
2023-04-14T18:04:57.955Z,1007.27
2023-04-14T18:06:57.905Z,1007.30
2023-04-14T18:08:57.916Z,1007.31
2023-04-14T18:11:00.126Z,1007.31
2023-04-14T18:12:57.988Z,1007.36
2023-04-14T18:14:57.916Z,1007.38
2023-04-14T18:16:57.964Z,1007.36
2023-04-14T18:18:57.984Z,1007.36
2023-04-14T18:20:57.907Z,1007.36
2023-04-14T18:22:57.943Z,1007.39
2023-04-14T18:24:57.973Z,1007.44
2023-04-14T18:26:58.008Z,1007.45
2023-04-14T18:28:57.976Z,1007.45
2023-04-14T18:30:57.978Z,1007.48
2023-04-14T18:32:57.974Z,1007.47
2023-04-14T18:34:57.982Z,1007.51
2023-04-14T18:36:57.983Z,1007.54
2023-04-14T18:38:58.065Z,1007.54
2023-04-14T18:40:58.740Z,1007.57
2023-04-14T18:42:57.998Z,1007.57
2023-04-14T18:44:58.686Z,1007.55
2023-04-14T18:46:58.428Z,1007.53
2023-04-14T18:49:58.006Z,1007.54
2023-04-14T18:51:12.250Z,1007.54
2023-04-14T18:53:58.232Z,1007.52
2023-04-14T18:55:02.886Z,1007.55
2023-04-14T18:57:58.029Z,1007.59
2023-04-14T18:59:57.971Z,1007.58
2023-04-14T19:01:58.346Z,1007.58
2023-04-14T19:03:58.822Z,1007.57
2023-04-14T19:05:57.996Z,1007.58
2023-04-14T19:07:58.043Z,1007.58
2023-04-14T19:09:58.146Z,1007.58
2023-04-14T19:11:58.135Z,1007.58
2023-04-14T19:13:58.043Z,1007.60
2023-04-14T19:15:58.028Z,1007.62
2023-04-14T19:17:58.110Z,1007.62
2023-04-14T19:19:58.150Z,1007.64
2023-04-14T19:21:58.159Z,1007.64
2023-04-14T19:23:58.064Z,1007.64
2023-04-14T19:25:58.049Z,1007.63
2023-04-14T19:27:58.156Z,1007.66
2023-04-14T19:29:58.183Z,1007.66
2023-04-14T19:32:01.981Z,1007.67
2023-04-14T19:33:58.103Z,1007.64
2023-04-14T19:35:58.104Z,1007.60
2023-04-14T19:37:58.047Z,1007.59
2023-04-14T19:40:00.752Z,1007.59
2023-04-14T19:41:58.222Z,1007.58
2023-04-14T19:45:20.902Z,1007.55
2023-04-14T19:47:23.109Z,1007.54
2023-04-14T19:49:20.867Z,1007.52
2023-04-14T19:51:21.042Z,1007.54
2023-04-14T19:53:20.898Z,1007.55
2023-04-14T19:55:20.952Z,1007.55
2023-04-14T19:57:20.886Z,1007.46
2023-04-14T19:59:20.902Z,1007.48
2023-04-14T20:01:21.005Z,1007.50
2023-04-14T20:03:20.980Z,1007.50
2023-04-14T20:05:21.014Z,1007.50
2023-04-14T20:07:20.919Z,1007.53
2023-04-14T20:09:24.033Z,1007.44
2023-04-14T20:12:20.883Z,1007.45
2023-04-14T20:14:20.913Z,1007.40
2023-04-14T20:16:20.920Z,1007.38
2023-04-14T20:18:23.300Z,1007.38
2023-04-14T20:20:20.960Z,1007.40
2023-04-14T20:22:20.897Z,1007.37
2023-04-14T20:24:20.912Z,1007.38
2023-04-14T20:25:25.774Z,1007.38
2023-04-14T20:27:25.833Z,1007.36
2023-04-14T20:30:25.527Z,1007.32
2023-04-14T20:32:20.901Z,1007.30
2023-04-14T20:34:20.974Z,1007.32
2023-04-14T20:36:20.915Z,1007.32
2023-04-14T20:38:21.108Z,1007.35
2023-04-14T20:40:20.936Z,1007.36
2023-04-14T20:42:21.070Z,1007.34
2023-04-14T20:44:21.046Z,1007.34
2023-04-14T20:46:20.956Z,1007.34
2023-04-14T20:48:20.954Z,1007.39
2023-04-14T20:50:20.993Z,1007.38
2023-04-14T20:52:20.950Z,1007.38
2023-04-14T20:54:21.002Z,1007.41
2023-04-14T20:56:20.977Z,1007.41
2023-04-14T20:58:20.956Z,1007.40
2023-04-14T21:00:21.251Z,1007.39
2023-04-14T21:02:21.233Z,1007.36
2023-04-14T21:04:21.151Z,1007.36
2023-04-14T21:06:20.975Z,1007.39
2023-04-14T21:08:21.216Z,1007.37
2023-04-14T21:10:21.078Z,1007.40
2023-04-14T21:12:26.028Z,1007.40
2023-04-14T21:15:44.011Z,1007.40
2023-04-14T21:16:21.089Z,1007.41
2023-04-14T21:18:23.898Z,1007.44
2023-04-14T21:20:21.081Z,1007.41
2023-04-14T21:22:21.091Z,1007.42
2023-04-14T21:24:21.213Z,1007.42
2023-04-14T21:26:21.242Z,1007.42
2023-04-14T21:28:20.971Z,1007.50
2023-04-14T21:30:23.577Z,1007.51
2023-04-14T21:32:21.002Z,1007.51
2023-04-14T21:34:20.957Z,1007.53
2023-04-14T21:36:21.009Z,1007.52
2023-04-14T21:38:20.977Z,1007.51
2023-04-14T21:40:23.659Z,1007.52
2023-04-14T21:42:23.843Z,1007.52
2023-04-14T21:44:20.980Z,1007.54
2023-04-14T21:46:28.694Z,1007.57
2023-04-14T21:48:23.957Z,1007.54
2023-04-14T21:50:21.096Z,1007.56
2023-04-14T21:52:20.938Z,1007.56
2023-04-14T21:54:23.485Z,1007.59
2023-04-14T21:56:21.040Z,1007.59
2023-04-14T21:58:20.993Z,1007.61
2023-04-14T22:00:21.010Z,1007.60
2023-04-14T22:02:21.149Z,1007.60
2023-04-14T22:04:33.096Z,1007.58
2023-04-14T22:06:20.955Z,1007.58
2023-04-14T22:08:20.969Z,1007.56
2023-04-14T22:10:24.038Z,1007.56
2023-04-14T22:12:20.959Z,1007.58
2023-04-14T22:14:21.043Z,1007.56
2023-04-14T22:16:20.953Z,1007.58
2023-04-14T22:18:22.371Z,1007.54
2023-04-14T22:20:23.916Z,1007.54
2023-04-14T22:22:21.042Z,1007.52
2023-04-14T22:24:25.858Z,1007.53
2023-04-14T22:26:20.981Z,1007.57
2023-04-14T22:28:21.072Z,1007.55
2023-04-14T22:30:23.794Z,1007.55
2023-04-14T22:32:21.219Z,1007.53
2023-04-14T22:34:21.096Z,1007.53
2023-04-14T22:36:21.122Z,1007.54
2023-04-14T22:38:21.071Z,1007.54
2023-04-14T22:40:20.968Z,1007.55
2023-04-14T22:42:26.061Z,1007.55
2023-04-14T22:44:21.033Z,1007.50
2023-04-14T22:46:23.353Z,1007.50
2023-04-14T22:48:21.006Z,1007.50
2023-04-14T22:50:20.993Z,1007.39
2023-04-14T22:52:20.980Z,1007.38
2023-04-14T22:54:21.047Z,1007.38
2023-04-14T22:56:20.992Z,1007.37
2023-04-14T22:58:21.322Z,1007.37
2023-04-14T23:00:22.262Z,1007.36
2023-04-14T23:02:21.299Z,1007.36
2023-04-14T23:04:22.672Z,1007.37
2023-04-14T23:06:28.349Z,1007.37
2023-04-14T23:08:21.004Z,1007.39
2023-04-14T23:10:24.052Z,1007.36
2023-04-14T23:12:21.005Z,1007.39
2023-04-14T23:14:21.029Z,1007.38
2023-04-14T23:16:21.140Z,1007.38
2023-04-14T23:18:21.006Z,1007.36
2023-04-14T23:20:21.032Z,1007.34
2023-04-14T23:22:21.248Z,1007.36
2023-04-14T23:24:21.004Z,1007.31
2023-04-14T23:26:21.035Z,1007.31
2023-04-14T23:28:21.004Z,1007.31
2023-04-14T23:30:20.972Z,1007.26
2023-04-14T23:32:21.204Z,1007.20
2023-04-14T23:34:21.053Z,1007.20
2023-04-14T23:36:26.924Z,1007.18
2023-04-14T23:38:21.104Z,1007.16
2023-04-14T23:40:21.015Z,1007.19
2023-04-14T23:42:21.023Z,1007.13
2023-04-14T23:45:21.225Z,1007.10
2023-04-14T23:47:20.975Z,1007.17
2023-04-14T23:49:32.695Z,1007.17
2023-04-14T23:51:32.676Z,1007.17
2023-04-14T23:52:24.032Z,1007.17
2023-04-14T23:55:21.019Z,1007.11
2023-04-14T23:57:20.998Z,1007.13
2023-04-14T23:59:21.343Z,1007.13
